Time;durP1;ratioP1;P1;durP2;ratioP2;P2;SDS_P1;SDS_P2;PMS_P1;PMS_P2;Temp;Humidity;BMP_temperature;BMP_pressure;BME280_temperature;BME280_humidity;BME280_pressure;Samples;Min_cycle;Max_cycle;Signal;HPM_P1;HPM_P2
2022/05/26 00:01:59;;;;;;;;;27.60;23.00;26.40;99.90;;;;;;5056669;28;8972;-64
2022/05/26 00:04:27;;;;;;;;;28.25;23.75;26.40;99.90;;;;;;5056270;28;8731;-63
2022/05/26 00:06:55;;;;;;;;;29.75;23.25;26.40;99.90;;;;;;5057264;28;8857;-63
2022/05/26 00:09:23;;;;;;;;;29.25;26.00;26.40;99.90;;;;;;5056282;28;9135;-64
2022/05/26 00:11:49;;;;;;;;;23.25;21.25;26.40;99.90;;;;;;5031665;28;9507;-64
2022/05/26 00:14:16;;;;;;;;;27.60;19.20;26.40;99.90;;;;;;5036842;28;8777;-64
2022/05/26 00:16:44;;;;;;;;;25.75;20.75;26.40;99.90;;;;;;5036470;28;8737;-64
2022/05/26 00:19:11;;;;;;;;;21.50;19.75;26.40;99.90;;;;;;5019575;28;8742;-64
2022/05/26 00:21:38;;;;;;;;;10.50;6.50;26.50;99.90;;;;;;5036111;28;8757;-64
2022/05/26 00:24:05;;;;;;;;;22.80;18.60;26.50;99.90;;;;;;5020302;28;8795;-64
2022/05/26 00:26:32;;;;;;;;;23.50;17.50;26.50;99.90;;;;;;5044181;28;8762;-64
2022/05/26 00:28:59;;;;;;;;;22.50;16.50;26.60;99.90;;;;;;5060323;28;8874;-64
2022/05/26 00:31:25;;;;;;;;;23.40;17.60;26.60;99.90;;;;;;5057501;28;8739;-64
2022/05/26 00:33:52;;;;;;;;;19.60;17.20;26.60;99.90;;;;;;5060727;28;8751;-64
2022/05/26 00:36:37;;;;;;;;;27.40;19.00;26.60;99.90;;;;;;5059349;28;8762;-63
2022/05/26 00:39:23;;;;;;;;;23.40;17.20;26.60;99.90;;;;;;5028061;28;8751;-64
2022/05/26 00:41:53;;;;;;;;;13.60;11.60;26.60;99.90;;;;;;5040888;28;8747;-64
2022/05/26 00:44:20;;;;;;;;;19.20;15.20;26.60;99.90;;;;;;5059305;28;8754;-63
2022/05/26 00:46:55;;;;;;;;;18.40;15.40;26.60;99.90;;;;;;5059835;28;8769;-64
2022/05/26 00:49:47;;;;;;;;;19.00;16.00;26.60;99.90;;;;;;5041806;28;8833;-64
2022/05/26 00:52:24;;;;;;;;;21.20;18.40;26.60;99.90;;;;;;5023134;28;8794;-63
2022/05/26 00:54:52;;;;;;;;;24.20;15.60;26.70;99.90;;;;;;5041614;28;8820;-63
2022/05/26 00:57:28;;;;;;;;;13.20;12.80;26.60;99.90;;;;;;5070963;28;9091;-63
2022/05/26 00:59:59;;;;;;;;;17.00;14.80;26.60;99.90;;;;;;5039647;28;8768;-63
2022/05/26 01:02:33;;;;;;;;;20.80;15.40;26.80;99.90;;;;;;5038472;28;8827;-63
2022/05/26 01:05:02;;;;;;;;;19.60;16.00;26.90;99.90;;;;;;5070770;28;8764;-63
2022/05/26 01:07:34;;;;;;;;;23.40;16.60;26.90;99.90;;;;;;5037917;28;8827;-63
2022/05/26 01:10:00;;;;;;;;;19.80;17.20;27.00;99.90;;;;;;5039953;28;8917;-63
2022/05/26 01:12:27;;;;;;;;;21.20;17.40;26.90;99.90;;;;;;5027021;28;8873;-63
2022/05/26 01:14:59;;;;;;;;;24.20;16.20;26.90;99.90;;;;;;5019491;28;8856;-63
2022/05/26 01:18:03;;;;;;;;;22.00;17.80;27.00;99.90;;;;;;5019076;28;8767;-63
2022/05/26 01:20:43;;;;;;;;;20.60;17.20;27.00;99.90;;;;;;5019477;28;8785;-64
2022/05/26 01:23:18;;;;;;;;;20.20;16.60;27.00;99.90;;;;;;5019229;28;8785;-63
2022/05/26 01:26:26;;;;;;;;;22.40;16.20;27.10;99.90;;;;;;5017870;28;8821;-63
2022/05/26 01:29:20;;;;;;;;;21.80;18.80;27.10;99.90;;;;;;4991318;28;8754;-63
2022/05/26 01:32:11;;;;;;;;;23.60;16.60;27.20;99.90;;;;;;5051339;28;8775;-63
2022/05/26 01:35:09;;;;;;;;;25.60;18.00;27.20;99.90;;;;;;5018234;28;9061;-63
2022/05/26 01:37:50;;;;;;;;;16.80;14.60;27.30;99.90;;;;;;5037873;28;8764;-63
2022/05/26 01:40:20;;;;;;;;;22.00;19.60;27.30;99.90;;;;;;5020059;28;8770;-62
2022/05/26 01:43:08;;;;;;;;;20.80;17.60;27.40;99.90;;;;;;5034025;28;8765;-62
2022/05/26 01:45:46;;;;;;;;;20.60;18.40;27.40;99.90;;;;;;5039211;28;8764;-62
2022/05/26 01:48:51;;;;;;;;;21.00;14.00;27.40;99.90;;;;;;5038691;28;8768;-63
2022/05/26 01:52:09;;;;;;;;;19.00;16.40;27.50;99.90;;;;;;5038350;28;8804;-61
2022/05/26 01:54:39;;;;;;;;;24.20;17.80;27.60;99.90;;;;;;4997071;28;8816;-62
2022/05/26 01:57:13;;;;;;;;;12.40;7.60;27.60;99.90;;;;;;4978029;28;8760;-63
2022/05/26 02:00:08;;;;;;;;;21.20;18.00;27.70;99.90;;;;;;4962318;28;8776;-63
2022/05/26 02:02:59;;;;;;;;;19.60;17.00;27.70;99.90;;;;;;4961913;28;8792;-62
2022/05/26 02:05:28;;;;;;;;;23.20;17.00;27.80;99.90;;;;;;4977114;28;8908;-62
2022/05/26 02:08:20;;;;;;;;;20.00;17.20;27.80;99.90;;;;;;4976969;28;8776;-63
2022/05/26 02:11:01;;;;;;;;;18.20;14.40;27.90;99.90;;;;;;4978073;28;8867;-62
2022/05/26 02:13:32;;;;;;;;;17.80;12.40;27.90;99.90;;;;;;4962667;28;8771;-62
2022/05/26 02:16:07;;;;;;;;;18.20;17.20;27.90;99.90;;;;;;4962444;28;8760;-62
2022/05/26 02:18:43;;;;;;;;;26.80;18.20;28.10;99.90;;;;;;4946110;28;8928;-62
2022/05/26 02:21:24;;;;;;;;;23.00;18.20;28.00;99.90;;;;;;4946450;28;8901;-63
2022/05/26 02:24:03;;;;;;;;;20.80;17.80;27.90;99.90;;;;;;4961412;28;8791;-63
2022/05/26 02:26:30;;;;;;;;;17.00;13.80;27.80;99.90;;;;;;4949813;28;8794;-62
2022/05/26 02:31:43;;;;;;;;;18.40;16.40;28.00;99.90;;;;;;5036831;28;9434;-62
2022/05/26 02:34:14;;;;;;;;;18.80;17.80;28.00;99.90;;;;;;5019835;28;8804;-62
2022/05/26 02:36:41;;;;;;;;;21.20;17.20;28.10;99.90;;;;;;5019997;28;8769;-62
2022/05/26 02:39:09;;;;;;;;;21.00;17.00;28.20;99.90;;;;;;5019810;28;8812;-63
2022/05/26 02:41:39;;;;;;;;;17.60;15.80;28.40;99.90;;;;;;5041444;28;8783;-62
2022/05/26 02:44:06;;;;;;;;;23.40;19.80;28.30;99.90;;;;;;5023109;28;8790;-63
2022/05/26 02:46:45;;;;;;;;;20.20;17.80;28.40;99.90;;;;;;5038986;28;8819;-62
2022/05/26 02:49:31;;;;;;;;;19.80;16.80;28.50;99.90;;;;;;5057347;28;8765;-62
2022/05/26 02:52:02;;;;;;;;;10.60;10.00;28.80;99.90;;;;;;5056953;28;8807;-68
2022/05/26 02:54:40;;;;;;;;;16.80;15.80;28.90;99.90;;;;;;5056348;28;8782;-63
2022/05/26 02:57:25;;;;;;;;;21.00;16.20;29.50;99.90;;;;;;5062888;28;8784;-66
2022/05/26 02:59:57;;;;;;;;;11.60;7.60;29.90;99.90;;;;;;5019000;28;8927;-64
2022/05/26 03:02:41;;;;;;;;;19.60;16.80;29.40;99.90;;;;;;5035141;28;8796;-63
2022/05/26 03:05:14;;;;;;;;;16.60;12.80;29.60;99.90;;;;;;5037615;28;8788;-63
2022/05/26 03:07:44;;;;;;;;;14.00;11.80;30.10;99.90;;;;;;5037395;28;8776;-64
2022/05/26 03:10:13;;;;;;;;;22.00;14.20;30.60;99.90;;;;;;5003280;28;8814;-64
2022/05/26 03:12:40;;;;;;;;;22.00;17.00;30.70;99.90;;;;;;5031653;28;8903;-64
2022/05/26 03:15:08;;;;;;;;;18.40;13.60;30.00;99.90;;;;;;5038575;28;8851;-64
2022/05/26 03:17:36;;;;;;;;;16.60;13.00;30.00;99.90;;;;;;5038555;28;8884;-64
2022/05/26 03:20:04;;;;;;;;;19.20;16.40;30.40;99.90;;;;;;5038644;28;8763;-64
2022/05/26 03:22:35;;;;;;;;;18.00;13.60;29.60;99.90;;;;;;5038059;28;8880;-65
2022/05/26 03:25:02;;;;;;;;;19.25;15.75;30.20;99.90;;;;;;5070987;28;8771;-63
2022/05/26 03:27:31;;;;;;;;;17.60;17.00;30.10;99.90;;;;;;5025305;28;8809;-64
2022/05/26 03:30:00;;;;;;;;;20.80;15.00;30.10;99.90;;;;;;5036124;28;8777;-66
2022/05/26 03:32:27;;;;;;;;;17.40;12.40;29.70;99.90;;;;;;5033995;28;8816;-64
2022/05/26 03:40:49;;;;;;;;;16.40;14.60;29.60;99.90;;;;;;5020319;28;8789;-64
2022/05/26 03:43:20;;;;;;;;;23.40;18.40;30.30;99.90;;;;;;5040005;28;8779;-64
2022/05/26 03:45:47;;;;;;;;;21.00;14.00;30.90;99.90;;;;;;5038531;28;8786;-65
2022/05/26 03:48:15;;;;;;;;;16.80;14.20;30.60;99.90;;;;;;5037393;28;8855;-65
2022/05/26 03:50:42;;;;;;;;;20.60;16.00;30.50;99.90;;;;;;5021299;28;8782;-65
2022/05/26 03:53:11;;;;;;;;;21.00;17.00;29.90;99.90;;;;;;5034671;28;8878;-66
2022/05/26 03:55:38;;;;;;;;;21.00;16.00;30.20;99.90;;;;;;5036177;28;9455;-64
2022/05/26 03:58:08;;;;;;;;;11.80;9.80;29.90;99.90;;;;;;5017673;28;8772;-65
2022/05/26 04:00:35;;;;;;;;;19.60;15.40;29.80;99.90;;;;;;5033955;28;8749;-66
2022/05/26 04:03:10;;;;;;;;;16.80;13.40;30.00;99.90;;;;;;5035815;28;8763;-65
2022/05/26 04:05:37;;;;;;;;;21.00;14.60;30.60;99.90;;;;;;5033804;28;8899;-66
2022/05/26 04:08:11;;;;;;;;;20.00;15.00;30.60;99.90;;;;;;5051004;28;8779;-66
2022/05/26 04:10:42;;;;;;;;;16.80;12.20;30.90;99.90;;;;;;5035735;28;8978;-66
2022/05/26 04:13:11;;;;;;;;;17.40;15.20;31.20;99.90;;;;;;5036093;28;8890;-65
2022/05/26 04:15:46;;;;;;;;;20.60;15.60;30.50;99.90;;;;;;5035641;28;8760;-62
2022/05/26 04:18:13;;;;;;;;;20.40;14.20;30.10;99.90;;;;;;5033606;28;8780;-63
2022/05/26 04:20:43;;;;;;;;;20.40;15.80;30.30;99.90;;;;;;5033832;28;8756;-63
2022/05/26 04:23:13;;;;;;;;;19.00;13.60;30.60;99.90;;;;;;5034565;28;8755;-64
2022/05/26 04:25:40;;;;;;;;;20.00;16.20;30.30;99.90;;;;;;5033974;28;8767;-67
2022/05/26 04:28:09;;;;;;;;;20.40;16.00;30.60;99.90;;;;;;5017679;28;8783;-64
2022/05/26 04:30:36;;;;;;;;;20.60;16.20;30.40;99.90;;;;;;5015635;28;8735;-65
2022/05/26 04:33:07;;;;;;;;;11.80;8.00;30.70;99.90;;;;;;5030050;28;8781;-65
2022/05/26 04:35:35;;;;;;;;;11.60;11.60;31.00;99.90;;;;;;5015802;28;8779;-64
2022/05/26 04:38:02;;;;;;;;;22.40;18.00;31.30;99.90;;;;;;5014702;28;8778;-66
2022/05/26 04:40:39;;;;;;;;;24.40;19.20;30.70;99.90;;;;;;5014727;28;8747;-61
2022/05/26 04:43:07;;;;;;;;;14.80;10.40;31.40;99.90;;;;;;5033864;28;8741;-62
2022/05/26 04:45:35;;;;;;;;;17.40;13.80;31.20;99.90;;;;;;5035704;28;9397;-62
2022/05/26 04:48:02;;;;;;;;;19.60;15.20;31.40;99.90;;;;;;5051187;28;8768;-63
2022/05/26 04:50:30;;;;;;;;;16.20;15.00;31.10;99.90;;;;;;5033362;28;8800;-63
2022/05/26 04:52:57;;;;;;;;;12.80;10.80;31.50;99.90;;;;;;5044867;28;8801;-62
2022/05/26 04:55:27;;;;;;;;;14.80;14.00;31.70;99.90;;;;;;5038250;28;8797;-62
2022/05/26 04:57:57;;;;;;;;;20.00;16.80;32.20;99.90;;;;;;5018760;28;9472;-64
2022/05/26 05:00:27;;;;;;;;;20.80;13.40;32.60;99.90;;;;;;5035399;28;8780;-63
2022/05/26 05:02:55;;;;;;;;;18.40;16.20;32.50;99.90;;;;;;5034318;28;9269;-63
2022/05/26 05:05:23;;;;;;;;;16.40;12.40;32.30;99.90;;;;;;5034989;28;8810;-62
2022/05/26 05:07:53;;;;;;;;;17.40;13.40;32.20;99.90;;;;;;5033985;28;8765;-64
2022/05/26 05:10:20;;;;;;;;;18.80;14.80;32.50;99.90;;;;;;5035837;28;8758;-65
2022/05/26 05:12:48;;;;;;;;;18.80;16.00;32.70;99.90;;;;;;5051713;28;9380;-63
2022/05/26 05:15:45;;;;;;;;;20.60;15.00;32.70;99.90;;;;;;5041716;28;8774;-64
2022/05/26 05:18:12;;;;;;;;;22.25;15.75;32.10;99.90;;;;;;5044234;28;9833;-64
2022/05/26 05:20:39;;;;;;;;;21.80;17.00;31.50;99.90;;;;;;5039895;28;8829;-62
2022/05/26 05:23:08;;;;;;;;;19.20;17.20;31.80;99.90;;;;;;5074504;28;8845;-63
2022/05/26 05:25:40;;;;;;;;;21.40;15.80;32.00;99.90;;;;;;5059147;28;8723;-63
2022/05/26 05:28:17;;;;;;;;;18.00;15.60;31.80;99.90;;;;;;5040888;28;8741;-64
2022/05/26 05:31:00;;;;;;;;;24.75;19.00;32.10;99.90;;;;;;5006413;28;9414;-65
2022/05/26 05:33:33;;;;;;;;;16.80;12.60;32.20;99.90;;;;;;5021341;28;8894;-65
2022/05/26 05:36:07;;;;;;;;;25.60;18.20;32.10;99.90;;;;;;5037064;28;8753;-65
2022/05/26 05:38:36;;;;;;;;;16.40;13.80;32.50;99.90;;;;;;5003640;28;8797;-68
2022/05/26 05:41:03;;;;;;;;;21.00;17.40;32.70;99.90;;;;;;5035145;28;8741;-64
2022/05/26 05:43:31;;;;;;;;;11.20;11.20;32.60;99.90;;;;;;5055129;28;8777;-65
2022/05/26 05:45:58;;;;;;;;;17.60;12.60;32.70;99.90;;;;;;5038689;28;8763;-64
2022/05/26 05:48:26;;;;;;;;;21.80;15.00;32.60;99.90;;;;;;5068397;28;8783;-64
2022/05/26 05:50:53;;;;;;;;;21.40;15.60;32.60;99.90;;;;;;5036666;28;8823;-64
2022/05/26 05:53:21;;;;;;;;;20.60;17.00;32.50;99.90;;;;;;5035609;28;9214;-63
2022/05/26 05:55:50;;;;;;;;;20.20;16.80;32.70;99.90;;;;;;5036386;28;8819;-64
2022/05/26 05:58:21;;;;;;;;;20.80;15.60;32.90;99.90;;;;;;5048840;28;8782;-63
2022/05/26 06:00:49;;;;;;;;;22.40;15.20;32.30;99.90;;;;;;5015672;28;8758;-64
2022/05/26 06:03:17;;;;;;;;;20.40;15.80;32.50;99.90;;;;;;4999950;28;8806;-64
2022/05/26 06:05:46;;;;;;;;;17.60;15.20;32.50;99.90;;;;;;5013280;28;9977;-64
2022/05/26 06:08:14;;;;;;;;;19.00;16.60;32.40;99.90;;;;;;5014774;28;8779;-67
2022/05/26 06:10:45;;;;;;;;;20.40;18.80;31.90;99.90;;;;;;5026138;28;8767;-64
2022/05/26 06:13:12;;;;;;;;;23.20;18.20;31.60;99.90;;;;;;5018988;28;8761;-63
2022/05/26 06:15:45;;;;;;;;;22.00;18.00;31.60;99.90;;;;;;5034309;28;8752;-64
2022/05/26 06:18:20;;;;;;;;;22.75;17.75;31.60;99.90;;;;;;5036312;28;8787;-64
2022/05/26 06:20:51;;;;;;;;;21.00;16.00;31.60;99.90;;;;;;5037522;28;8775;-64
2022/05/26 06:23:20;;;;;;;;;19.40;15.80;31.50;99.90;;;;;;5038616;28;8782;-63
2022/05/26 06:25:51;;;;;;;;;24.75;19.25;31.40;99.90;;;;;;5038522;28;8772;-64
2022/05/26 06:31:10;;;;;;;;;19.25;15.50;31.40;99.90;;;;;;5019608;28;8743;-63
2022/05/26 06:37:13;;;;;;;;;14.80;14.60;32.00;99.70;;;;;;5017382;28;9546;-63
2022/05/26 06:39:29;;;;;;;;;15.60;11.20;32.10;99.10;;;;;;5018492;28;8844;-64
2022/05/26 06:42:05;;;;;;;;;18.40;14.20;32.70;99.10;;;;;;5025413;28;8791;-66
2022/05/26 06:44:41;;;;;;;;;22.40;16.40;33.30;98.80;;;;;;5052348;28;8780;-63
2022/05/26 06:47:12;;;;;;;;;14.00;14.00;33.10;98.00;;;;;;5038608;28;8748;-64
2022/05/26 06:49:40;;;;;;;;;22.25;17.25;33.20;98.00;;;;;;5038409;28;8836;-64
2022/05/26 06:52:07;;;;;;;;;14.00;13.25;32.70;98.30;;;;;;5037187;28;8918;-65
2022/05/26 06:54:36;;;;;;;;;14.80;11.60;32.90;98.20;;;;;;5037497;28;8865;-64
2022/05/26 06:57:04;;;;;;;;;24.40;16.60;32.90;97.60;;;;;;5037070;28;8808;-65
2022/05/26 06:59:31;;;;;;;;;18.75;15.50;33.00;98.20;;;;;;5037574;28;8802;-65
2022/05/26 07:01:57;;;;;;;;;16.25;14.25;33.00;98.80;;;;;;5068252;28;8764;-67
2022/05/26 07:04:24;;;;;;;;;20.50;18.75;32.90;98.20;;;;;;5035562;28;8842;-65
2022/05/26 07:06:52;;;;;;;;;21.00;17.50;32.30;99.60;;;;;;5037430;28;8753;-65
2022/05/26 07:09:20;;;;;;;;;24.75;21.00;32.00;98.70;;;;;;5051914;28;8838;-67
2022/05/26 07:11:47;;;;;;;;;24.50;17.50;31.80;99.90;;;;;;5033266;28;9532;-69
2022/05/26 07:14:14;;;;;;;;;20.25;17.50;31.90;99.90;;;;;;5035709;28;9517;-68
2022/05/26 07:16:41;;;;;;;;;22.00;15.25;32.10;99.90;;;;;;5051724;28;8756;-68
2022/05/26 07:19:08;;;;;;;;;23.50;20.75;32.20;99.40;;;;;;5037188;28;8788;-64
2022/05/26 07:21:35;;;;;;;;;25.50;19.25;32.00;99.40;;;;;;5036261;28;8769;-65
2022/05/26 07:24:02;;;;;;;;;25.75;21.00;32.00;99.10;;;;;;5035569;28;8800;-64
2022/05/26 07:26:32;;;;;;;;;27.50;20.25;32.00;99.50;;;;;;5039182;28;8797;-65
2022/05/26 07:28:59;;;;;;;;;19.75;17.00;32.00;99.90;;;;;;5038460;28;8790;-66
2022/05/26 07:31:26;;;;;;;;;28.25;18.50;31.90;99.90;;;;;;5055728;28;8775;-65
2022/05/26 07:33:53;;;;;;;;;29.00;22.25;31.80;99.90;;;;;;5039100;28;8775;-65
2022/05/26 07:41:53;;;;;;;;;26.80;21.40;31.60;99.90;;;;;;5056370;28;8802;-65
2022/05/26 07:44:20;;;;;;;;;24.50;17.25;31.70;99.90;;;;;;5022302;28;8759;-65
2022/05/26 07:46:47;;;;;;;;;23.00;18.00;31.70;99.90;;;;;;5059023;28;8759;-67
2022/05/26 07:49:13;;;;;;;;;22.00;17.00;31.80;99.90;;;;;;5058048;28;9616;-64
2022/05/26 07:51:43;;;;;;;;;25.25;19.75;31.80;99.60;;;;;;5056294;28;8782;-65
2022/05/26 07:54:12;;;;;;;;;20.25;18.00;31.80;99.40;;;;;;5071243;28;8782;-68
2022/05/26 07:57:03;;;;;;;;;32.75;20.50;32.00;98.90;;;;;;5096912;27;11407;-68
2022/05/26 07:59:30;;;;;;;;;23.75;17.75;31.90;98.60;;;;;;5084765;28;8765;-68
2022/05/26 08:01:58;;;;;;;;;25.00;18.50;32.00;99.00;;;;;;5073795;28;8754;-68
2022/05/26 08:04:24;;;;;;;;;20.25;17.00;31.90;99.50;;;;;;5072594;28;9032;-66
2022/05/26 08:06:51;;;;;;;;;24.75;19.25;32.00;99.10;;;;;;5073983;28;8714;-67
2022/05/26 08:09:19;;;;;;;;;17.50;16.50;31.90;98.60;;;;;;5071518;28;8780;-68
2022/05/26 08:11:46;;;;;;;;;8.75;8.75;31.80;99.10;;;;;;5073481;28;8762;-69
2022/05/26 08:14:13;;;;;;;;;18.75;14.50;32.00;98.30;;;;;;5073037;28;8769;-70
2022/05/26 08:16:40;;;;;;;;;21.00;18.00;32.10;98.00;;;;;;5073464;28;9154;-71
2022/05/26 08:19:07;;;;;;;;;23.25;18.00;32.10;98.60;;;;;;5073437;28;8754;-68
2022/05/26 08:21:35;;;;;;;;;24.50;17.00;32.20;97.10;;;;;;5073603;28;8862;-68
2022/05/26 08:24:02;;;;;;;;;23.50;18.25;32.10;97.80;;;;;;5072673;28;8872;-69
2022/05/26 08:26:30;;;;;;;;;19.75;16.25;31.90;98.00;;;;;;5072110;28;8813;-70
2022/05/26 08:28:57;;;;;;;;;13.75;13.75;31.90;98.60;;;;;;5073807;28;8813;-70
2022/05/26 08:31:24;;;;;;;;;23.00;20.25;32.10;99.20;;;;;;5068493;28;8734;-68
2022/05/26 08:33:51;;;;;;;;;18.25;16.00;32.20;97.90;;;;;;5069782;28;8781;-69
2022/05/26 08:36:20;;;;;;;;;25.60;18.40;32.20;98.40;;;;;;5070244;28;9391;-64
2022/05/26 08:38:47;;;;;;;;;25.40;17.20;32.40;97.70;;;;;;5055469;28;8803;-64
2022/05/26 08:41:23;;;;;;;;;20.80;18.60;32.30;97.70;;;;;;5072788;28;9198;-64
2022/05/26 08:43:58;;;;;;;;;21.50;15.50;32.40;97.40;;;;;;5071685;28;9472;-64
2022/05/26 08:46:37;;;;;;;;;24.25;19.50;32.60;97.00;;;;;;5067071;28;8738;-64
2022/05/26 08:49:10;;;;;;;;;19.50;15.25;32.40;97.50;;;;;;5055830;28;9496;-64
2022/05/26 08:51:48;;;;;;;;;18.00;17.00;32.30;97.50;;;;;;5072792;28;8797;-64
2022/05/26 08:54:34;;;;;;;;;23.50;20.25;32.40;97.80;;;;;;5072610;28;8876;-64
2022/05/26 08:57:01;;;;;;;;;25.25;18.00;32.20;97.10;;;;;;5091802;28;8894;-64
2022/05/26 08:59:39;;;;;;;;;21.00;19.00;32.00;98.00;;;;;;5093003;28;8751;-64
2022/05/26 09:02:06;;;;;;;;;26.50;17.75;31.80;98.40;;;;;;5075337;28;8752;-64
2022/05/26 09:04:33;;;;;;;;;21.50;18.00;31.70;99.00;;;;;;5047797;28;8767;-63
2022/05/26 09:12:59;;;;;;;;;23.00;17.75;32.00;98.30;;;;;;5051040;28;8769;-63
2022/05/26 09:15:30;;;;;;;;;25.00;19.75;31.90;98.90;;;;;;5061187;28;8800;-66
2022/05/26 09:17:57;;;;;;;;;1.75;1.00;31.80;99.30;;;;;;5068593;28;8787;-63
2022/05/26 09:20:36;;;;;;;;;26.50;22.00;31.70;99.50;;;;;;5079098;28;9849;-64
2022/05/26 09:23:12;;;;;;;;;28.25;19.75;31.70;99.50;;;;;;5079486;28;8879;-64
2022/05/26 09:25:49;;;;;;;;;23.00;19.40;31.70;99.40;;;;;;5079736;28;8791;-63
2022/05/26 09:28:32;;;;;;;;;22.75;17.25;31.80;99.90;;;;;;5061860;28;8768;-63
2022/05/26 09:31:32;;;;;;;;;28.00;18.00;31.80;99.90;;;;;;5062288;28;8737;-64
2022/05/26 09:34:09;;;;;;;;;28.50;20.00;31.80;99.90;;;;;;5079339;28;8879;-63
2022/05/26 09:36:52;;;;;;;;;24.75;19.25;31.90;98.70;;;;;;5077931;28;8832;-63
2022/05/26 09:39:34;;;;;;;;;30.25;23.00;31.90;99.70;;;;;;5061561;28;8829;-62
2022/05/26 09:42:01;;;;;;;;;31.75;24.50;31.90;99.90;;;;;;5067997;28;8792;-63
2022/05/26 09:44:35;;;;;;;;;24.50;20.50;31.70;99.80;;;;;;5044526;28;8778;-63
2022/05/26 09:47:22;;;;;;;;;25.75;23.75;31.80;99.90;;;;;;5058437;28;8758;-63
2022/05/26 09:49:50;;;;;;;;;28.80;23.00;31.90;99.90;;;;;;5040912;28;8770;-63
2022/05/26 09:52:19;;;;;;;;;25.50;19.75;31.90;99.90;;;;;;5058005;28;8761;-63
2022/05/26 09:54:47;;;;;;;;;26.50;19.50;31.70;99.90;;;;;;5040710;28;9170;-63
2022/05/26 09:57:19;;;;;;;;;24.50;19.00;31.70;99.20;;;;;;5050241;28;8772;-63
2022/05/26 09:59:46;;;;;;;;;26.25;18.50;31.60;99.30;;;;;;5078357;28;9316;-61
2022/05/26 10:02:24;;;;;;;;;28.00;18.75;31.50;99.90;;;;;;5044232;28;9012;-63
2022/05/26 10:04:53;;;;;;;;;13.25;6.50;31.40;99.90;;;;;;5078490;28;8782;-63
2022/05/26 10:07:28;;;;;;;;;24.75;20.00;31.50;99.90;;;;;;5078762;28;8836;-63
2022/05/26 10:10:23;;;;;;;;;25.75;20.75;31.60;99.60;;;;;;5061588;28;8741;-63
2022/05/26 10:13:16;;;;;;;;;27.75;22.00;31.60;99.90;;;;;;5049866;28;8751;-63
2022/05/26 10:15:49;;;;;;;;;27.00;20.50;31.50;99.90;;;;;;5078242;28;8769;-64
2022/05/26 10:19:01;;;;;;;;;28.50;26.50;31.50;99.90;;;;;;5059623;28;8768;-63
2022/05/26 10:21:52;;;;;;;;;28.00;23.00;31.60;99.90;;;;;;5073318;28;8756;-63
2022/05/26 10:25:06;;;;;;;;;26.75;22.75;31.60;99.90;;;;;;5066332;28;8791;-62
2022/05/26 10:27:32;;;;;;;;;20.50;15.00;31.60;99.90;;;;;;5031724;28;8799;-63
2022/05/26 10:30:11;;;;;;;;;31.00;27.00;31.60;99.70;;;;;;5078000;28;8767;-63
2022/05/26 10:33:08;;;;;;;;;29.00;23.00;31.50;99.90;;;;;;5060002;28;8890;-63
2022/05/26 10:35:58;;;;;;;;;31.00;23.25;31.50;99.90;;;;;;5059553;28;8781;-63
2022/05/26 10:38:59;;;;;;;;;29.50;24.75;31.60;99.80;;;;;;5060497;28;9015;-63
2022/05/26 10:41:44;;;;;;;;;28.50;23.75;31.60;99.90;;;;;;5076997;28;9132;-63
2022/05/26 10:44:26;;;;;;;;;25.25;21.50;31.50;99.90;;;;;;5043556;28;8875;-63
2022/05/26 10:47:29;;;;;;;;;35.50;27.50;31.50;99.90;;;;;;5078033;28;8787;-63
2022/05/26 10:49:59;;;;;;;;;37.25;27.50;31.50;99.90;;;;;;5073448;28;8796;-64
2022/05/26 10:52:32;;;;;;;;;31.00;25.00;31.50;99.90;;;;;;5076067;28;8741;-63
2022/05/26 10:55:10;;;;;;;;;31.25;27.50;31.40;99.90;;;;;;5059971;28;8803;-63
2022/05/26 10:57:44;;;;;;;;;37.50;28.75;31.40;99.90;;;;;;5043811;28;8776;-63
2022/05/26 11:00:25;;;;;;;;;29.25;23.50;31.40;99.90;;;;;;5050486;28;8753;-63
2022/05/26 11:03:07;;;;;;;;;34.00;26.75;31.40;99.90;;;;;;5040416;28;8804;-63
2022/05/26 11:05:39;;;;;;;;;40.75;31.00;31.30;99.90;;;;;;5075974;28;8784;-64
2022/05/26 11:08:12;;;;;;;;;43.25;32.75;31.30;99.90;;;;;;5077575;28;8760;-64
2022/05/26 11:10:48;;;;;;;;;42.25;29.75;31.30;99.90;;;;;;5077538;28;8783;-63
2022/05/26 11:13:36;;;;;;;;;37.50;32.00;31.20;99.90;;;;;;5078129;28;8789;-64
2022/05/26 11:19:34;;;;;;;;;38.25;30.00;31.20;99.90;;;;;;5062278;28;8729;-63
2022/05/26 11:22:01;;;;;;;;;37.25;30.50;31.20;99.90;;;;;;5077732;28;8741;-63
2022/05/26 11:24:28;;;;;;;;;44.00;31.75;31.20;99.90;;;;;;5076866;28;8861;-63
2022/05/26 11:27:04;;;;;;;;;37.75;32.50;31.10;99.90;;;;;;5058575;28;9483;-63
2022/05/26 11:29:37;;;;;;;;;44.75;34.50;31.10;99.90;;;;;;5076638;28;8748;-63
2022/05/26 11:38:10;;;;;;;;;48.00;38.25;30.90;99.90;;;;;;5077140;28;8748;-63
2022/05/26 11:40:55;;;;;;;;;48.25;37.25;30.90;99.90;;;;;;5075803;28;8753;-63
2022/05/26 11:43:35;;;;;;;;;48.25;36.50;30.90;99.90;;;;;;5077344;28;8761;-63
2022/05/26 11:46:01;;;;;;;;;48.75;36.00;30.90;99.90;;;;;;5056291;28;8773;-63
2022/05/26 11:48:31;;;;;;;;;40.00;31.50;30.90;99.90;;;;;;5056821;28;8761;-63
2022/05/26 11:51:00;;;;;;;;;41.25;33.25;30.80;99.90;;;;;;5056306;28;8777;-63
2022/05/26 11:53:44;;;;;;;;;33.00;28.25;30.80;99.90;;;;;;5056425;28;8861;-63
2022/05/26 11:56:27;;;;;;;;;36.50;30.25;30.80;99.90;;;;;;5039505;28;8779;-63
2022/05/26 11:59:18;;;;;;;;;38.25;30.50;30.80;99.90;;;;;;5037211;28;8749;-63
2022/05/26 12:01:48;;;;;;;;;42.25;33.75;30.70;99.90;;;;;;5056133;28;8849;-63
2022/05/26 12:04:32;;;;;;;;;49.50;38.50;30.70;99.90;;;;;;5056265;28;8766;-63
2022/05/26 12:07:18;;;;;;;;;54.50;40.50;30.60;99.90;;;;;;5056205;28;8769;-63
2022/05/26 12:09:54;;;;;;;;;58.75;45.75;30.60;99.90;;;;;;5056502;28;8758;-63
2022/05/26 12:12:24;;;;;;;;;49.75;39.50;30.60;99.90;;;;;;5056078;28;8810;-62
2022/05/26 12:14:52;;;;;;;;;52.25;40.50;30.60;99.90;;;;;;5055414;28;8757;-63
2022/05/26 12:17:28;;;;;;;;;46.50;36.50;30.60;99.90;;;;;;5056226;28;8753;-63
2022/05/26 12:19:54;;;;;;;;;50.75;38.75;30.50;99.90;;;;;;5056393;28;8770;-63
2022/05/26 12:22:43;;;;;;;;;49.25;38.00;30.50;99.90;;;;;;5055660;28;8770;-62
2022/05/26 12:25:24;;;;;;;;;48.00;37.25;30.40;99.90;;;;;;5016409;28;8773;-63
2022/05/26 12:28:09;;;;;;;;;57.75;41.50;30.40;99.90;;;;;;5056461;28;8757;-64
2022/05/26 12:30:45;;;;;;;;;54.25;39.50;30.30;99.90;;;;;;5056310;28;8797;-64
2022/05/26 12:33:21;;;;;;;;;56.50;42.50;30.40;99.90;;;;;;5056227;28;8856;-63
2022/05/26 12:36:24;;;;;;;;;54.25;40.50;30.40;99.90;;;;;;5056629;28;8800;-63
2022/05/26 12:39:46;;;;;;;;;58.50;42.00;30.40;99.90;;;;;;5056792;28;8761;-63
2022/05/26 12:42:25;;;;;;;;;61.75;43.00;30.30;99.90;;;;;;5002794;28;8782;-64
2022/05/26 12:45:20;;;;;;;;;63.50;46.50;30.40;99.90;;;;;;5059048;28;8746;-63
2022/05/26 12:48:09;;;;;;;;;57.75;40.75;30.40;99.90;;;;;;5060625;28;8777;-63
2022/05/26 12:50:42;;;;;;;;;56.00;41.75;30.40;99.90;;;;;;5060037;28;8953;-63
2022/05/26 12:53:32;;;;;;;;;54.25;41.00;30.40;99.90;;;;;;5059796;28;8750;-63
2022/05/26 12:56:10;;;;;;;;;51.50;38.00;30.40;99.90;;;;;;5059130;28;8790;-63
2022/05/26 12:58:51;;;;;;;;;47.25;34.00;30.30;99.90;;;;;;5040133;28;8918;-63
2022/05/26 13:01:21;;;;;;;;;58.00;43.25;30.20;99.90;;;;;;5039853;28;8740;-63
2022/05/26 13:04:02;;;;;;;;;72.60;59.00;30.30;99.90;;;;;;5038660;28;8772;-63
2022/05/26 13:06:33;;;;;;;;;78.60;65.20;30.30;99.90;;;;;;5038676;28;9449;-63
2022/05/26 13:09:15;;;;;;;;;63.50;48.25;30.30;99.90;;;;;;5038729;28;8744;-63
2022/05/26 13:11:52;;;;;;;;;61.00;44.25;30.20;99.90;;;;;;5044709;28;8856;-63
2022/05/26 13:14:44;;;;;;;;;52.75;39.00;30.10;99.90;;;;;;5059527;28;8765;-63
2022/05/26 13:17:15;;;;;;;;;51.25;38.00;30.10;99.90;;;;;;5058640;28;8777;-63
2022/05/26 13:19:52;;;;;;;;;49.75;39.25;30.10;99.90;;;;;;5059689;28;8831;-63
2022/05/26 13:22:19;;;;;;;;;48.75;38.75;30.10;99.90;;;;;;5060185;28;8758;-62
2022/05/26 13:25:00;;;;;;;;;52.50;39.75;30.10;99.90;;;;;;5059308;28;8784;-63
2022/05/26 13:27:28;;;;;;;;;48.00;37.75;30.10;99.90;;;;;;5074663;28;8766;-63
2022/05/26 13:33:07;;;;;;;;;49.00;38.00;30.10;99.90;;;;;;5058157;28;8834;-63
2022/05/26 13:35:26;;;;;;;;;52.00;38.25;29.90;99.90;;;;;;5059151;28;8770;-63
2022/05/26 13:37:53;;;;;;;;;45.25;37.25;29.90;99.90;;;;;;5057796;28;8762;-63
2022/05/26 13:40:24;;;;;;;;;43.75;35.25;29.90;99.90;;;;;;5057891;28;8764;-63
2022/05/26 13:42:51;;;;;;;;;45.75;34.75;29.90;99.90;;;;;;5057745;28;8837;-63
2022/05/26 13:45:32;;;;;;;;;44.75;32.75;29.80;99.90;;;;;;5057591;28;8758;-62
2022/05/26 13:48:21;;;;;;;;;47.25;35.25;29.70;99.90;;;;;;5058907;28;9422;-63
2022/05/26 13:50:51;;;;;;;;;41.75;34.00;29.60;99.90;;;;;;5059083;28;8839;-63
2022/05/26 13:53:18;;;;;;;;;42.75;33.25;29.60;99.90;;;;;;5057330;28;8746;-61